PWSweather.com
Personal Weather Stations
Station Observations
K7AZM
Phoenix, AZ 85050

Phoenix, AZ 85050

Lat: 33.662, Lon: -112.019

Elevation: 1500

Station Type: Davis Vantage Vue

http://www.silhanek.com/weather

Latest ConditionsUpdated 2:10:00 AM MST Friday, Feb 22, 2019
Currently Today's Max Today's Min Today's Average
Temperature 37.1°F2.8°C 37.6°F3.1°C 36.8°F2.7°C 37.2°F2.9°C
Dew Point 35.3°F1.8°C 35.8°F2.1°C 35.0°F1.7°C 35.4°F1.9°C
Winds Calm Calm 2.1 mph -3.4 kmh - - 0.8 mph 1.3 kmh
Wind Gusts -- 5.0 mph8.0 kmh - -
Humidity 93% 93% 93% 93%
Pressure 29.80 in1009.1 mb 29.81 in1009.5 mb 29.79 in1008.8 mb -
Precipitation - 0.07 in1.8 mm - -
Hour Temp Dew Point Humidity Winds Wind Gusts Pressure Precip Precip Rate Daily Precip Total
02:10 AM 37.1°F2.8°C 35.3°F1.8°C 93% Calm Calm -- 29.80 in1009.1 mb 0.03 in0.8 mm 0.00 in0.0 mm 0.07 in1.8 mm
02:05 AM 37.2°F2.9°C 35.4°F1.9°C 93% Calm Calm -- 29.80 in1009.1 mb 0.04 in1.0 mm 0.00 in0.0 mm 0.07 in1.8 mm
02:00 AM 37.1°F2.8°C 35.3°F1.8°C 93% Calm Calm 1.0 mph1.6 kmh 29.80 in1009.1 mb 0.04 in1.0 mm 0.00 in0.0 mm 0.07 in1.8 mm
01:55 AM 37.1°F2.8°C 35.3°F1.8°C 93% 0.1 mph NNE0.2 kmh NNE 1.0 mph1.6 kmh 29.80 in1009.1 mb 0.05 in1.3 mm 0.00 in0.0 mm 0.07 in1.8 mm
01:50 AM 37.0°F2.8°C 35.2°F1.8°C 93% 0.1 mph NNE0.2 kmh NNE 2.0 mph3.2 kmh 29.80 in1009.1 mb 0.05 in1.3 mm 0.12 in3.0 mm 0.07 in1.8 mm
01:45 AM 36.9°F2.7°C 35.1°F1.7°C 93% 0.7 mph N1.1 kmh N 3.0 mph4.8 kmh 29.80 in1009.1 mb 0.04 in1.0 mm 0.00 in0.0 mm 0.06 in1.5 mm
01:40 AM 36.9°F2.7°C 35.1°F1.7°C 93% 0.7 mph N1.1 kmh N 3.0 mph4.8 kmh 29.80 in1009.1 mb 0.04 in1.0 mm 0.00 in0.0 mm 0.06 in1.5 mm
01:35 AM 36.8°F2.7°C 35.0°F1.7°C 93% 0.8 mph N1.3 kmh N 3.0 mph4.8 kmh 29.80 in1009.1 mb 0.04 in1.0 mm 0.00 in0.0 mm 0.06 in1.5 mm
01:30 AM 36.8°F2.7°C 35.0°F1.7°C 93% Calm Calm 3.0 mph4.8 kmh 29.80 in1009.1 mb 0.05 in1.3 mm 0.12 in3.0 mm 0.06 in1.5 mm
01:25 AM 36.8°F2.7°C 35.0°F1.7°C 93% 0.6 mph N1.0 kmh N 5.0 mph8.0 kmh 29.80 in1009.1 mb 0.04 in1.0 mm 0.00 in0.0 mm 0.05 in1.3 mm
01:20 AM 36.9°F2.7°C 35.1°F1.7°C 93% 2.1 mph N3.4 kmh N 5.0 mph8.0 kmh 29.80 in1009.1 mb 0.04 in1.0 mm 0.12 in3.0 mm 0.05 in1.3 mm
01:15 AM 37.1°F2.8°C 35.3°F1.8°C 93% 2.1 mph N3.4 kmh N 4.0 mph6.4 kmh 29.81 in1009.5 mb 0.03 in0.8 mm 0.00 in0.0 mm 0.04 in1.0 mm
01:10 AM 37.3°F2.9°C 35.5°F1.9°C 93% 1.6 mph N2.6 kmh N 4.0 mph6.4 kmh 29.80 in1009.1 mb 0.03 in0.8 mm 0.12 in3.0 mm 0.04 in1.0 mm
01:05 AM 37.4°F3.0°C 35.6°F2.0°C 93% 1.7 mph N2.7 kmh N 4.0 mph6.4 kmh 29.81 in1009.5 mb 0.02 in0.5 mm 0.00 in0.0 mm 0.03 in0.8 mm
01:00 AM 37.3°F2.9°C 35.5°F1.9°C 93% 0.6 mph NNE1.0 kmh NNE 4.0 mph6.4 kmh 29.81 in1009.5 mb 0.03 in0.8 mm 0.01 in0.3 mm 0.03 in0.8 mm
12:55 AM 37.4°F3.0°C 35.6°F2.0°C 93% 0.6 mph N1.0 kmh N 4.0 mph6.4 kmh 29.80 in1009.1 mb 0.02 in0.5 mm 0.00 in0.0 mm 0.02 in0.5 mm
12:50 AM 37.4°F3.0°C 35.6°F2.0°C 93% 0.4 mph N0.6 kmh N 3.0 mph4.8 kmh 29.80 in1009.1 mb 0.02 in0.5 mm 0.00 in0.0 mm 0.02 in0.5 mm
12:45 AM 37.5°F3.1°C 35.7°F2.1°C 93% 0.4 mph E0.6 kmh E 4.0 mph6.4 kmh 29.80 in1009.1 mb 0.03 in0.8 mm 0.00 in0.0 mm 0.02 in0.5 mm
12:40 AM 37.5°F3.1°C 35.7°F2.1°C 93% 1.4 mph ENE2.3 kmh ENE 4.0 mph6.4 kmh 29.80 in1009.1 mb 0.05 in1.3 mm 0.00 in0.0 mm 0.02 in0.5 mm
12:35 AM 37.6°F3.1°C 35.8°F2.1°C 93% 0.5 mph NE0.8 kmh NE 4.0 mph6.4 kmh 29.80 in1009.1 mb 0.06 in1.5 mm 0.00 in0.0 mm 0.02 in0.5 mm
12:30 AM 37.6°F3.1°C 35.8°F2.1°C 93% 0.7 mph NNE1.1 kmh NNE 4.0 mph6.4 kmh 29.79 in1008.8 mb 0.07 in1.8 mm 0.00 in0.0 mm 0.01 in0.3 mm
12:25 AM 37.5°F3.1°C 35.7°F2.1°C 93% 0.2 mph ENE0.3 kmh ENE 3.0 mph4.8 kmh 29.79 in1008.8 mb 0.07 in1.8 mm 0.00 in0.0 mm 0.01 in0.3 mm
12:20 AM 37.5°F3.1°C 35.7°F2.1°C 93% 0.9 mph N1.4 kmh N 4.0 mph6.4 kmh 29.79 in1008.8 mb 0.07 in1.8 mm 0.00 in0.0 mm 0.01 in0.3 mm
12:15 AM 37.4°F3.0°C 35.6°F2.0°C 93% 1.9 mph N3.1 kmh N 4.0 mph6.4 kmh 29.79 in1008.8 mb 0.08 in2.0 mm 0.00 in0.0 mm 0.01 in0.3 mm
12:10 AM 37.3°F2.9°C 35.5°F1.9°C 93% 1.7 mph N2.7 kmh N 4.0 mph6.4 kmh 29.79 in1008.8 mb 0.08 in2.0 mm 0.00 in0.0 mm 0.01 in0.3 mm
12:05 AM 37.2°F2.9°C 35.4°F1.9°C 93% 0.9 mph N1.4 kmh N 3.0 mph4.8 kmh 29.79 in1008.8 mb 0.09 in2.3 mm 0.12 in3.0 mm 0.01 in0.3 mm
12:00 AM 37.1°F2.8°C 35.3°F1.8°C 93% Calm Calm 1.0 mph1.6 kmh 29.80 in1009.1 mb 0.08 in2.0 mm 0.00 in0.0 mm 1.34 in34.0 mm